createdAt,value
2022-08-14T00:00:26.025Z,22.46
2022-08-14T00:01:13.391Z,22.42
2022-08-14T00:01:54.821Z,22.42
2022-08-14T00:02:31.592Z,22.43
2022-08-14T00:03:05.376Z,22.43
2022-08-14T00:03:40.716Z,22.44
2022-08-14T00:04:34.471Z,22.45
2022-08-14T00:05:11.046Z,22.55
2022-08-14T00:05:44.903Z,22.68
2022-08-14T00:06:28.423Z,22.81
2022-08-14T00:07:06.099Z,22.93
2022-08-14T00:07:41.900Z,22.97
2022-08-14T00:08:15.697Z,22.95
2022-08-14T00:09:09.057Z,22.90
2022-08-14T00:10:01.589Z,22.85
2022-08-14T00:10:52.318Z,22.78
2022-08-14T00:11:31.340Z,22.70
2022-08-14T00:12:07.304Z,22.64
2022-08-14T00:12:57.480Z,22.53
2022-08-14T00:13:31.270Z,22.45
2022-08-14T00:14:04.924Z,22.39
2022-08-14T00:14:39.518Z,22.32
2022-08-14T00:15:25.300Z,22.26
2022-08-14T00:16:04.108Z,22.15
2022-08-14T00:16:45.182Z,22.09
2022-08-14T00:17:18.612Z,22.06
2022-08-14T00:17:55.425Z,22.02
2022-08-14T00:18:30.875Z,22.01
2022-08-14T00:19:24.339Z,21.99
2022-08-14T00:20:01.145Z,21.99
2022-08-14T00:20:42.891Z,21.97
2022-08-14T00:21:16.722Z,21.93
2022-08-14T00:21:52.037Z,21.90
2022-08-14T00:22:56.507Z,21.86
2022-08-14T00:23:20.272Z,21.92
2022-08-14T00:23:54.788Z,22.10
2022-08-14T00:24:35.105Z,22.36
2022-08-14T00:25:10.057Z,22.61
2022-08-14T00:25:59.075Z,22.86
2022-08-14T00:26:39.635Z,23.18
2022-08-14T00:27:13.119Z,23.35
2022-08-14T00:27:54.200Z,23.48
2022-08-14T00:28:29.138Z,23.55
2022-08-14T00:29:08.350Z,23.61
2022-08-14T00:29:43.083Z,23.69
2022-08-14T00:30:17.358Z,23.78
2022-08-14T00:30:51.059Z,23.87
2022-08-14T00:31:35.210Z,23.96
2022-08-14T00:32:52.208Z,24.07
2022-08-14T00:33:15.984Z,24.16
2022-08-14T00:33:51.779Z,24.24
2022-08-14T00:34:35.520Z,24.30
2022-08-14T00:35:12.779Z,24.36
2022-08-14T00:36:39.226Z,24.39
2022-08-14T00:36:49.328Z,24.42
2022-08-14T00:37:23.245Z,24.43
2022-08-14T00:37:56.538Z,24.47
2022-08-14T00:38:29.903Z,24.53
2022-08-14T00:39:06.530Z,24.58
2022-08-14T00:39:42.979Z,24.63
2022-08-14T00:40:33.220Z,24.66
2022-08-14T00:41:10.978Z,24.70
2022-08-14T00:41:44.680Z,24.75
2022-08-14T00:42:21.500Z,24.79
2022-08-14T00:43:14.943Z,24.79
2022-08-14T00:43:48.382Z,24.79
2022-08-14T00:44:31.745Z,24.79
2022-08-14T00:45:09.133Z,24.76
2022-08-14T00:45:51.593Z,24.76
2022-08-14T00:46:32.386Z,24.72
2022-08-14T00:47:10.762Z,24.70
2022-08-14T00:47:47.547Z,24.68
2022-08-14T00:48:34.306Z,24.68
2022-08-14T00:49:11.533Z,24.68
2022-08-14T00:49:48.640Z,24.64
2022-08-14T00:50:23.353Z,24.61
2022-08-14T00:51:00.006Z,24.56
2022-08-14T00:51:37.973Z,24.51
2022-08-14T00:52:17.861Z,24.43
2022-08-14T00:52:53.029Z,24.36
2022-08-14T00:53:27.202Z,24.31
2022-08-14T00:54:02.803Z,24.29
2022-08-14T00:54:39.350Z,24.29
2022-08-14T00:55:14.816Z,24.34
2022-08-14T00:55:49.558Z,24.39
2022-08-14T00:56:22.997Z,24.40
2022-08-14T00:57:05.661Z,24.37
2022-08-14T00:57:40.560Z,24.33
2022-08-14T00:58:32.815Z,24.27
2022-08-14T00:59:06.848Z,24.16
2022-08-14T00:59:41.987Z,24.13
2022-08-14T01:00:34.233Z,24.13
2022-08-14T01:01:11.864Z,24.19
2022-08-14T01:01:46.190Z,24.30
2022-08-14T01:02:25.000Z,24.41
2022-08-14T01:03:02.049Z,24.52
2022-08-14T01:03:38.337Z,24.58
2022-08-14T01:04:37.248Z,24.62
2022-08-14T01:05:08.241Z,24.65
2022-08-14T01:05:51.905Z,24.69
2022-08-14T01:06:30.343Z,24.73
2022-08-14T01:07:08.268Z,24.76
2022-08-14T01:07:53.920Z,24.81
2022-08-14T01:08:57.966Z,24.85
2022-08-14T01:09:25.471Z,24.90
2022-08-14T01:10:02.846Z,24.93
2022-08-14T01:10:52.229Z,24.95
2022-08-14T01:11:35.614Z,24.93
2022-08-14T01:12:11.345Z,24.93
2022-08-14T01:12:45.711Z,24.94
2022-08-14T01:13:28.542Z,24.96
2022-08-14T01:14:27.432Z,25.01
2022-08-14T01:15:03.315Z,25.08
2022-08-14T01:15:57.552Z,25.15
2022-08-14T01:16:31.701Z,25.24
2022-08-14T01:17:05.227Z,25.28
2022-08-14T01:18:01.067Z,25.30
2022-08-14T01:18:57.790Z,25.31
2022-08-14T01:19:53.975Z,25.32
2022-08-14T01:20:46.803Z,25.35
2022-08-14T01:21:47.180Z,25.38
2022-08-14T01:22:27.081Z,25.38
2022-08-14T01:23:03.049Z,25.41
2022-08-14T01:23:47.046Z,25.43
2022-08-14T01:24:28.940Z,25.45
2022-08-14T01:25:09.005Z,25.46
2022-08-14T01:25:44.650Z,25.48
2022-08-14T01:26:34.809Z,25.51
2022-08-14T01:27:18.237Z,25.56
2022-08-14T01:27:57.200Z,25.59
2022-08-14T01:28:56.072Z,25.62
2022-08-14T01:29:58.799Z,25.60
2022-08-14T01:30:38.232Z,25.59
2022-08-14T01:31:16.326Z,25.61
2022-08-14T01:31:55.294Z,25.62
2022-08-14T01:32:30.096Z,25.64
2022-08-14T01:33:03.758Z,25.67
2022-08-14T01:33:59.498Z,25.69
2022-08-14T01:35:17.956Z,25.70
2022-08-14T01:36:05.628Z,25.71
2022-08-14T01:36:23.211Z,25.71
2022-08-14T01:36:56.560Z,25.73
2022-08-14T01:37:29.819Z,25.76
2022-08-14T01:38:05.970Z,25.78
2022-08-14T01:38:44.172Z,25.79
2022-08-14T01:39:22.748Z,25.81
2022-08-14T01:39:57.577Z,25.83
2022-08-14T01:40:33.037Z,25.85
2022-08-14T01:41:15.894Z,25.84
2022-08-14T01:41:58.263Z,25.85
2022-08-14T01:42:36.309Z,25.85
2022-08-14T01:43:18.346Z,25.85
2022-08-14T01:44:02.447Z,25.86
2022-08-14T01:44:36.751Z,25.85
2022-08-14T01:45:17.788Z,25.83
2022-08-14T01:46:06.549Z,25.78
2022-08-14T01:46:44.647Z,25.72
2022-08-14T01:47:22.468Z,25.64
2022-08-14T01:48:03.538Z,25.59
2022-08-14T01:48:39.254Z,25.54
2022-08-14T01:49:15.619Z,25.54
2022-08-14T01:50:01.263Z,25.56
2022-08-14T01:50:35.315Z,25.62
2022-08-14T01:51:19.121Z,25.64
2022-08-14T01:51:57.042Z,25.66
2022-08-14T01:52:58.839Z,25.65
2022-08-14T01:53:31.556Z,25.59
2022-08-14T01:54:14.421Z,25.54
2022-08-14T01:54:58.074Z,25.45
2022-08-14T01:55:32.576Z,25.35
2022-08-14T01:56:12.127Z,25.26
2022-08-14T01:56:56.860Z,25.16
2022-08-14T01:57:49.656Z,25.06
2022-08-14T01:58:28.796Z,24.92
2022-08-14T01:59:09.749Z,24.86
2022-08-14T01:59:44.982Z,24.84
2022-08-14T02:00:19.028Z,24.82
2022-08-14T02:00:55.854Z,24.79
2022-08-14T02:01:30.551Z,24.75
2022-08-14T02:02:19.815Z,24.69
2022-08-14T02:02:57.332Z,24.64
2022-08-14T02:03:32.463Z,24.66
2022-08-14T02:04:20.747Z,24.74
2022-08-14T02:05:03.045Z,24.78
2022-08-14T02:05:38.109Z,24.79
2022-08-14T02:06:33.208Z,24.78
2022-08-14T02:07:15.842Z,24.74
2022-08-14T02:07:55.831Z,24.72
2022-08-14T02:08:34.681Z,24.70
2022-08-14T02:09:22.258Z,24.67
2022-08-14T02:09:56.223Z,24.65
2022-08-14T02:10:29.344Z,24.65
2022-08-14T02:11:20.253Z,24.65
2022-08-14T02:11:54.630Z,24.66
2022-08-14T02:12:30.805Z,24.68
2022-08-14T02:13:08.696Z,24.69
2022-08-14T02:13:46.844Z,24.69
2022-08-14T02:14:31.572Z,24.65
2022-08-14T02:15:09.730Z,24.61
2022-08-14T02:15:43.512Z,24.56
2022-08-14T02:16:22.523Z,24.53
2022-08-14T02:16:57.557Z,24.48
2022-08-14T02:17:34.076Z,24.44
2022-08-14T02:18:08.499Z,24.36
2022-08-14T02:18:42.453Z,24.30
2022-08-14T02:19:21.250Z,24.23
2022-08-14T02:19:56.109Z,24.18
2022-08-14T02:20:36.031Z,24.15
2022-08-14T02:21:09.772Z,24.11
2022-08-14T02:21:47.187Z,24.10
2022-08-14T02:22:32.583Z,24.06
2022-08-14T02:23:08.220Z,24.02
2022-08-14T02:23:42.621Z,23.99
2022-08-14T02:24:38.950Z,23.97
2022-08-14T02:25:11.443Z,23.92
2022-08-14T02:25:44.577Z,23.92
2022-08-14T02:26:31.052Z,23.90
2022-08-14T02:28:23.308Z,23.88
2022-08-14T02:28:26.019Z,23.90
2022-08-14T02:28:59.478Z,23.98
2022-08-14T02:29:56.265Z,24.04
2022-08-14T02:30:31.457Z,24.06
2022-08-14T02:31:08.959Z,24.05
2022-08-14T02:31:45.601Z,24.02
2022-08-14T02:32:29.966Z,23.99
2022-08-14T02:33:07.808Z,23.93
2022-08-14T02:33:44.930Z,23.87
2022-08-14T02:34:26.372Z,23.82
2022-08-14T02:35:00.941Z,23.73
2022-08-14T02:35:40.585Z,23.66
2022-08-14T02:37:05.228Z,23.62
2022-08-14T02:37:12.645Z,23.64
2022-08-14T02:37:50.323Z,23.73
2022-08-14T02:38:29.636Z,23.81
2022-08-14T02:39:08.036Z,23.86
2022-08-14T02:39:46.864Z,23.90
2022-08-14T02:40:32.461Z,23.94
2022-08-14T02:41:13.771Z,23.97
2022-08-14T02:41:52.806Z,24.05
2022-08-14T02:42:37.444Z,24.13
2022-08-14T02:43:11.597Z,24.19
2022-08-14T02:43:48.506Z,24.25
2022-08-14T02:44:29.741Z,24.29
2022-08-14T02:45:03.569Z,24.32
2022-08-14T02:45:44.682Z,24.33
2022-08-14T02:46:20.689Z,24.34
2022-08-14T02:47:01.800Z,24.33
2022-08-14T02:47:38.858Z,24.31
2022-08-14T02:49:03.283Z,24.31
2022-08-14T02:49:14.461Z,24.31
2022-08-14T02:49:55.011Z,24.32
2022-08-14T02:50:33.543Z,24.31
2022-08-14T02:51:12.965Z,24.29
2022-08-14T02:51:50.712Z,24.27
2022-08-14T02:52:57.386Z,24.29
2022-08-14T02:53:21.257Z,24.33
2022-08-14T02:53:54.769Z,24.38
2022-08-14T02:54:28.244Z,24.42
2022-08-14T02:55:04.863Z,24.47
2022-08-14T02:55:40.966Z,24.51
2022-08-14T02:56:30.257Z,24.54
2022-08-14T02:57:16.013Z,24.58
2022-08-14T02:57:58.050Z,24.63
2022-08-14T02:58:41.761Z,24.70
2022-08-14T02:59:19.343Z,24.77
2022-08-14T02:59:56.243Z,24.85
2022-08-14T03:00:31.139Z,24.93
2022-08-14T03:01:09.377Z,25.01
2022-08-14T03:01:43.538Z,25.07
2022-08-14T03:02:33.510Z,25.13
2022-08-14T03:03:18.350Z,25.16
2022-08-14T03:03:52.213Z,25.15
2022-08-14T03:04:29.053Z,25.15
2022-08-14T03:05:02.277Z,25.15
2022-08-14T03:05:37.047Z,25.13
2022-08-14T03:06:20.378Z,25.13
2022-08-14T03:06:57.963Z,25.14
2022-08-14T03:07:41.290Z,25.17
2022-08-14T03:08:16.143Z,25.19
2022-08-14T03:08:55.354Z,25.22
2022-08-14T03:10:24.810Z,25.22
2022-08-14T03:10:32.156Z,25.21
2022-08-14T03:11:11.679Z,25.22
2022-08-14T03:11:45.343Z,25.20
2022-08-14T03:12:31.204Z,25.14
2022-08-14T03:13:06.427Z,25.02
2022-08-14T03:13:53.811Z,24.91
2022-08-14T03:14:27.781Z,24.87
2022-08-14T03:15:16.114Z,24.85
2022-08-14T03:15:55.572Z,24.83
2022-08-14T03:16:38.527Z,24.84
2022-08-14T03:17:15.492Z,24.83
2022-08-14T03:17:56.881Z,24.81
2022-08-14T03:18:32.803Z,24.76
2022-08-14T03:19:09.002Z,24.74
2022-08-14T03:19:45.202Z,24.73
2022-08-14T03:20:18.384Z,24.74
2022-08-14T03:20:55.528Z,24.77
2022-08-14T03:21:34.403Z,24.81
2022-08-14T03:22:09.374Z,24.84
2022-08-14T03:22:53.440Z,24.86
2022-08-14T03:23:27.301Z,24.87
2022-08-14T03:24:21.566Z,24.89
2022-08-14T03:24:56.862Z,24.89
2022-08-14T03:25:37.730Z,24.89
2022-08-14T03:26:18.358Z,24.87
2022-08-14T03:27:04.442Z,24.82
2022-08-14T03:27:48.390Z,24.78
2022-08-14T03:28:33.260Z,24.72
2022-08-14T03:29:13.891Z,24.69
2022-08-14T03:29:49.204Z,24.65
2022-08-14T03:30:23.867Z,24.63
2022-08-14T03:31:00.483Z,24.60
2022-08-14T03:31:40.643Z,24.57
2022-08-14T03:32:16.915Z,24.52
2022-08-14T03:32:50.437Z,24.47
2022-08-14T03:33:25.157Z,24.41
2022-08-14T03:34:01.401Z,24.34
2022-08-14T03:34:52.783Z,24.25
2022-08-14T03:35:37.346Z,24.17
2022-08-14T03:37:37.551Z,24.19
2022-08-14T03:37:37.978Z,24.23
2022-08-14T03:39:14.170Z,24.46
2022-08-14T03:39:15.184Z,24.32
2022-08-14T03:39:55.886Z,24.57
2022-08-14T03:40:29.009Z,24.63
2022-08-14T03:41:02.879Z,24.70
2022-08-14T03:41:37.867Z,24.74
2022-08-14T03:42:19.394Z,24.75
2022-08-14T03:42:52.814Z,24.73
2022-08-14T03:43:28.539Z,24.69
2022-08-14T03:45:25.809Z,24.58
2022-08-14T03:45:26.005Z,24.63
2022-08-14T03:45:55.618Z,24.59
2022-08-14T03:46:51.807Z,24.61
2022-08-14T03:47:46.559Z,24.60
2022-08-14T03:48:30.426Z,24.60
2022-08-14T03:49:06.732Z,24.62
2022-08-14T03:49:49.784Z,24.64
2022-08-14T03:50:30.889Z,24.61
2022-08-14T03:51:09.581Z,24.53
2022-08-14T03:51:46.358Z,24.43
2022-08-14T03:52:38.453Z,24.32
2022-08-14T03:53:15.502Z,24.15
2022-08-14T03:53:49.796Z,24.04
2022-08-14T03:54:24.670Z,23.94
2022-08-14T03:54:58.862Z,23.86
2022-08-14T03:55:32.038Z,23.82
2022-08-14T03:56:06.476Z,23.76
2022-08-14T03:56:45.636Z,23.69
2022-08-14T03:57:24.604Z,23.62
2022-08-14T03:58:00.440Z,23.56
2022-08-14T03:58:36.396Z,23.52
2022-08-14T03:59:17.643Z,23.55
2022-08-14T03:59:51.900Z,23.64
2022-08-14T04:00:43.967Z,23.75
2022-08-14T04:01:25.387Z,23.89
2022-08-14T04:02:04.542Z,23.99
2022-08-14T04:02:46.694Z,24.08
2022-08-14T04:03:24.033Z,24.18
2022-08-14T04:04:00.396Z,24.25
2022-08-14T04:04:33.809Z,24.29
2022-08-14T04:05:12.085Z,24.30
2022-08-14T04:05:48.999Z,24.30
2022-08-14T04:06:22.506Z,24.29
2022-08-14T04:07:01.705Z,24.27
2022-08-14T04:07:36.098Z,24.26
2022-08-14T04:08:22.698Z,24.23
2022-08-14T04:09:07.313Z,24.23
2022-08-14T04:09:42.273Z,24.23
2022-08-14T04:10:17.138Z,24.22
2022-08-14T04:10:50.738Z,24.21
2022-08-14T04:11:25.928Z,24.17
2022-08-14T04:12:00.218Z,24.13
2022-08-14T04:12:36.423Z,24.09
2022-08-14T04:13:09.536Z,24.07
2022-08-14T04:13:44.984Z,24.04
2022-08-14T04:14:18.065Z,24.05
2022-08-14T04:14:53.122Z,24.07
2022-08-14T04:15:28.514Z,24.09
2022-08-14T04:16:05.068Z,24.11
2022-08-14T04:16:43.496Z,24.14
2022-08-14T04:17:17.620Z,24.16
2022-08-14T04:17:51.650Z,24.18
2022-08-14T04:18:30.583Z,24.19
2022-08-14T04:19:05.217Z,24.18
2022-08-14T04:19:40.840Z,24.16
2022-08-14T04:20:14.654Z,24.11
2022-08-14T04:20:59.595Z,24.03
2022-08-14T04:21:39.836Z,23.95
2022-08-14T04:22:25.969Z,23.83
2022-08-14T04:22:59.182Z,23.81
2022-08-14T04:23:35.880Z,23.81
2022-08-14T04:24:09.049Z,23.82
2022-08-14T04:24:45.117Z,23.83
2022-08-14T04:25:25.089Z,23.85
2022-08-14T04:25:59.329Z,23.86
2022-08-14T04:26:42.484Z,23.87
2022-08-14T04:27:17.181Z,23.87
2022-08-14T04:28:02.242Z,23.86
2022-08-14T04:29:07.227Z,23.84
2022-08-14T04:29:32.909Z,23.82
2022-08-14T04:30:07.403Z,23.82
2022-08-14T04:30:42.266Z,23.82
2022-08-14T04:31:17.783Z,23.82
2022-08-14T04:32:58.417Z,23.82
2022-08-14T04:33:00.795Z,23.79
2022-08-14T04:33:37.676Z,23.77
2022-08-14T04:34:16.928Z,23.80
2022-08-14T04:34:55.278Z,23.86
2022-08-14T04:35:56.607Z,23.93
2022-08-14T04:36:21.855Z,24.04
2022-08-14T04:37:22.239Z,24.13
2022-08-14T04:38:36.836Z,24.20
2022-08-14T04:39:28.742Z,24.14
2022-08-14T04:40:20.421Z,24.05
2022-08-14T04:41:14.153Z,23.99
2022-08-14T04:42:09.263Z,23.92
2022-08-14T04:43:04.367Z,23.92
2022-08-14T04:43:41.218Z,23.98
2022-08-14T04:44:35.827Z,24.00
2022-08-14T04:45:08.664Z,23.96
2022-08-14T04:45:42.675Z,23.91
2022-08-14T04:46:56.914Z,23.85
2022-08-14T04:47:31.633Z,23.72
2022-08-14T04:48:39.173Z,23.60
2022-08-14T04:49:08.288Z,23.57
2022-08-14T04:49:56.735Z,23.64
2022-08-14T04:50:33.872Z,23.78
2022-08-14T04:51:20.812Z,23.89
2022-08-14T04:51:55.831Z,23.98
2022-08-14T04:52:30.048Z,24.08
2022-08-14T04:53:04.348Z,24.19
2022-08-14T04:53:43.643Z,24.28
2022-08-14T04:54:17.453Z,24.37
2022-08-14T04:54:50.602Z,24.42
2022-08-14T04:55:23.968Z,24.45
2022-08-14T04:56:01.203Z,24.46
2022-08-14T04:56:34.890Z,24.46
2022-08-14T04:57:08.337Z,24.48
2022-08-14T04:57:44.559Z,24.49
2022-08-14T04:58:32.911Z,24.50
2022-08-14T04:59:09.606Z,24.52
2022-08-14T04:59:44.015Z,24.56
2022-08-14T05:00:18.196Z,24.57
2022-08-14T05:00:52.577Z,24.60
2022-08-14T05:01:27.126Z,24.62
2022-08-14T05:02:00.540Z,24.62
2022-08-14T05:02:36.551Z,24.60
2022-08-14T05:03:10.557Z,24.56
2022-08-14T05:03:44.360Z,24.51
2022-08-14T05:04:19.954Z,24.44
2022-08-14T05:04:57.096Z,24.34
2022-08-14T05:05:33.414Z,24.23
2022-08-14T05:06:37.587Z,24.13
2022-08-14T05:07:02.440Z,23.96
2022-08-14T05:07:54.719Z,23.88
2022-08-14T05:08:32.445Z,23.79
2022-08-14T05:09:24.739Z,23.69
2022-08-14T05:10:12.871Z,23.60
2022-08-14T05:10:55.231Z,23.47
2022-08-14T05:11:28.468Z,23.39
2022-08-14T05:13:11.057Z,23.31
2022-08-14T05:13:11.866Z,23.36
2022-08-14T05:14:53.402Z,23.22
2022-08-14T05:15:32.089Z,23.16
2022-08-14T05:16:08.123Z,23.09
2022-08-14T05:16:42.408Z,23.02
2022-08-14T05:17:16.075Z,22.95
2022-08-14T05:17:58.619Z,22.88
2022-08-14T05:19:17.762Z,22.75
2022-08-14T05:19:44.787Z,22.65
2022-08-14T05:21:57.918Z,22.55
2022-08-14T05:21:58.350Z,22.47
2022-08-14T05:22:23.095Z,22.40
2022-08-14T05:23:01.397Z,22.35
2022-08-14T05:23:38.188Z,22.30
2022-08-14T05:24:17.722Z,22.26
2022-08-14T05:24:52.265Z,22.21
2022-08-14T05:25:25.415Z,22.16
2022-08-14T05:26:13.357Z,22.12
2022-08-14T05:26:47.247Z,22.09
2022-08-14T05:27:22.634Z,22.06
2022-08-14T05:28:00.803Z,22.02
2022-08-14T05:28:36.156Z,21.99
2022-08-14T05:29:11.663Z,21.95
2022-08-14T05:29:46.678Z,21.90
2022-08-14T05:30:20.559Z,21.86
2022-08-14T05:30:56.822Z,21.82
2022-08-14T05:31:39.614Z,21.77
2022-08-14T05:32:15.133Z,21.74
2022-08-14T05:32:48.871Z,21.73
2022-08-14T05:33:25.578Z,21.72
2022-08-14T05:33:59.061Z,21.69
2022-08-14T05:34:32.289Z,21.65
2022-08-14T05:35:07.228Z,21.62
2022-08-14T05:35:42.443Z,21.58
2022-08-14T05:36:17.150Z,21.56
2022-08-14T05:36:58.844Z,21.53
2022-08-14T05:37:36.058Z,21.52
2022-08-14T05:38:31.365Z,21.52
2022-08-14T05:39:05.787Z,21.51
2022-08-14T05:39:43.803Z,21.49
2022-08-14T05:40:17.497Z,21.49
2022-08-14T05:40:53.218Z,21.49
2022-08-14T05:41:52.816Z,21.47
2022-08-14T05:42:29.240Z,21.45
2022-08-14T05:43:06.823Z,21.44
2022-08-14T05:43:42.121Z,21.44
2022-08-14T05:44:17.548Z,21.43
2022-08-14T05:44:51.241Z,21.41
2022-08-14T05:45:30.173Z,21.39
2022-08-14T05:46:05.830Z,21.37
2022-08-14T05:46:39.305Z,21.34
2022-08-14T05:47:12.500Z,21.31
2022-08-14T05:47:50.820Z,21.31
2022-08-14T05:48:33.842Z,21.41
2022-08-14T05:49:17.065Z,21.68
2022-08-14T05:49:51.433Z,21.89
2022-08-14T05:50:25.202Z,22.04
2022-08-14T05:51:02.666Z,22.13
2022-08-14T05:51:36.013Z,22.16
2022-08-14T05:52:09.809Z,22.17
2022-08-14T05:52:43.480Z,22.17
2022-08-14T05:53:19.416Z,22.16
2022-08-14T05:54:01.759Z,22.14
2022-08-14T05:54:47.454Z,22.06
2022-08-14T05:55:23.088Z,22.02
2022-08-14T05:56:00.203Z,21.99
2022-08-14T05:56:33.438Z,22.03
2022-08-14T05:57:10.397Z,22.15
2022-08-14T05:58:00.592Z,22.34
2022-08-14T05:58:41.402Z,22.66
2022-08-14T05:59:16.776Z,22.90
2022-08-14T05:59:50.524Z,23.07
2022-08-14T06:00:36.954Z,23.19
2022-08-14T06:01:13.048Z,23.31
2022-08-14T06:01:50.489Z,23.38
2022-08-14T06:02:24.676Z,23.46
2022-08-14T06:03:04.067Z,23.54
2022-08-14T06:03:40.431Z,23.61
2022-08-14T06:04:13.869Z,23.68
2022-08-14T06:04:50.181Z,23.76
2022-08-14T06:05:23.765Z,23.83
2022-08-14T06:06:03.946Z,23.86
2022-08-14T06:06:38.352Z,23.88
2022-08-14T06:07:11.872Z,23.89
2022-08-14T06:07:45.258Z,23.86
2022-08-14T06:08:41.137Z,23.83
2022-08-14T06:09:15.518Z,23.75
2022-08-14T06:09:52.210Z,23.72
2022-08-14T06:10:28.732Z,23.74
2022-08-14T06:11:06.227Z,23.76
2022-08-14T06:11:39.706Z,23.78
2022-08-14T06:12:13.010Z,23.83
2022-08-14T06:13:05.322Z,23.88
2022-08-14T06:13:45.598Z,23.95
2022-08-14T06:14:24.012Z,24.02
2022-08-14T06:14:57.842Z,24.06
2022-08-14T06:15:31.179Z,24.09
2022-08-14T06:16:07.588Z,24.11
2022-08-14T06:16:47.183Z,24.13
2022-08-14T06:17:25.907Z,24.12
2022-08-14T06:18:00.505Z,24.09
2022-08-14T06:18:36.354Z,24.05
2022-08-14T06:19:11.463Z,24.03
2022-08-14T06:19:53.566Z,24.06
2022-08-14T06:20:31.433Z,24.11
2022-08-14T06:21:12.857Z,24.16
2022-08-14T06:21:47.178Z,24.22
2022-08-14T06:22:21.803Z,24.25
2022-08-14T06:22:55.438Z,24.27
2022-08-14T06:23:30.065Z,24.27
2022-08-14T06:24:03.400Z,24.30
2022-08-14T06:24:36.565Z,24.34
2022-08-14T06:25:17.194Z,24.39
2022-08-14T06:25:53.564Z,24.41
2022-08-14T06:26:30.258Z,24.47
2022-08-14T06:27:06.144Z,24.54
2022-08-14T06:27:44.237Z,24.59
2022-08-14T06:28:27.379Z,24.64
2022-08-14T06:29:01.769Z,24.66
2022-08-14T06:29:35.411Z,24.69
2022-08-14T06:30:12.678Z,24.69
2022-08-14T06:30:50.050Z,24.65
2022-08-14T06:31:23.110Z,24.62
2022-08-14T06:32:00.517Z,24.60
2022-08-14T06:32:52.323Z,24.57
2022-08-14T06:33:30.317Z,24.55
2022-08-14T06:35:11.246Z,24.52
2022-08-14T06:35:21.274Z,24.54
2022-08-14T06:35:54.411Z,24.60
2022-08-14T06:36:27.790Z,24.66
2022-08-14T06:37:01.087Z,24.73
2022-08-14T06:38:04.369Z,24.77
2022-08-14T06:38:38.007Z,24.82
2022-08-14T06:39:11.188Z,24.86
2022-08-14T06:39:44.571Z,24.90
2022-08-14T06:40:26.159Z,24.90
2022-08-14T06:41:02.781Z,24.87
2022-08-14T06:41:59.699Z,24.86
2022-08-14T06:42:33.719Z,24.88
2022-08-14T06:43:09.519Z,24.90
2022-08-14T06:43:45.281Z,24.95
2022-08-14T06:44:22.573Z,24.98
2022-08-14T06:45:08.118Z,25.00
2022-08-14T06:45:44.045Z,25.00
2022-08-14T06:46:34.033Z,25.00
2022-08-14T06:47:10.440Z,24.98
2022-08-14T06:47:47.945Z,24.96
2022-08-14T06:48:25.839Z,24.96
2022-08-14T06:48:59.015Z,24.94
2022-08-14T06:49:40.580Z,24.95
2022-08-14T06:50:27.811Z,24.94
2022-08-14T06:51:01.960Z,24.92
2022-08-14T06:51:38.501Z,24.92
2022-08-14T06:52:18.041Z,24.93
2022-08-14T06:52:53.140Z,24.97
2022-08-14T06:53:28.116Z,25.01
2022-08-14T06:54:02.568Z,25.05
2022-08-14T06:54:35.894Z,25.08
2022-08-14T06:55:11.502Z,25.07
2022-08-14T06:55:57.926Z,25.06
2022-08-14T06:56:34.901Z,25.04
2022-08-14T06:57:08.603Z,25.05
2022-08-14T06:57:46.982Z,25.11
2022-08-14T06:58:28.748Z,25.15
2022-08-14T06:59:02.785Z,25.17
2022-08-14T06:59:38.877Z,25.14
2022-08-14T07:00:26.668Z,25.08
2022-08-14T07:01:27.158Z,24.98
2022-08-14T07:02:20.255Z,24.87
2022-08-14T07:03:13.049Z,24.85
2022-08-14T07:04:07.195Z,24.88
2022-08-14T07:05:13.025Z,24.88
2022-08-14T07:05:55.694Z,24.87
2022-08-14T07:06:46.412Z,24.87
2022-08-14T07:07:21.136Z,24.86
2022-08-14T07:07:54.705Z,24.86
2022-08-14T07:08:31.908Z,24.88
2022-08-14T07:09:05.653Z,24.85
2022-08-14T07:09:43.719Z,24.85
2022-08-14T07:10:24.952Z,24.87
2022-08-14T07:11:04.364Z,24.88
2022-08-14T07:11:38.873Z,24.88
2022-08-14T07:12:52.296Z,24.87
2022-08-14T07:13:07.704Z,24.88
2022-08-14T07:13:41.453Z,24.90
2022-08-14T07:14:15.617Z,24.93
2022-08-14T07:14:49.532Z,24.96
2022-08-14T07:15:22.770Z,24.94
2022-08-14T07:15:58.537Z,24.96
2022-08-14T07:16:32.017Z,24.98
2022-08-14T07:17:06.415Z,25.02
2022-08-14T07:17:52.047Z,25.05
2022-08-14T07:18:31.552Z,25.06
2022-08-14T07:19:06.146Z,25.06
2022-08-14T07:19:39.393Z,25.04
2022-08-14T07:20:14.058Z,25.01
2022-08-14T07:20:53.692Z,24.96
2022-08-14T07:21:27.691Z,24.89
2022-08-14T07:22:05.578Z,24.85
2022-08-14T07:22:57.100Z,24.83
2022-08-14T07:23:31.317Z,24.82
2022-08-14T07:24:05.293Z,24.82
2022-08-14T07:24:43.330Z,24.81
2022-08-14T07:25:17.234Z,24.82
2022-08-14T07:25:54.301Z,24.84
2022-08-14T07:26:29.477Z,24.87
2022-08-14T07:27:03.126Z,24.86
2022-08-14T07:27:36.461Z,24.85
2022-08-14T07:28:23.969Z,24.85
2022-08-14T07:28:57.655Z,24.89
2022-08-14T07:29:31.325Z,24.95
2022-08-14T07:30:06.423Z,25.03
2022-08-14T07:30:51.386Z,25.08
2022-08-14T07:31:25.049Z,25.11
2022-08-14T07:31:58.915Z,25.12
2022-08-14T07:32:34.354Z,25.12
2022-08-14T07:33:09.691Z,25.12
2022-08-14T07:33:50.093Z,25.11
2022-08-14T07:34:36.460Z,25.09
2022-08-14T07:35:15.619Z,25.07
2022-08-14T07:35:58.373Z,25.05
2022-08-14T07:36:32.236Z,25.07
2022-08-14T07:37:06.205Z,25.14
2022-08-14T07:37:39.544Z,25.25
2022-08-14T07:38:20.735Z,25.38
2022-08-14T07:38:54.381Z,25.51
2022-08-14T07:39:28.033Z,25.63
2022-08-14T07:40:04.409Z,25.74
2022-08-14T07:40:37.815Z,25.87
2022-08-14T07:41:14.719Z,25.97
2022-08-14T07:41:49.948Z,26.06
2022-08-14T07:42:23.732Z,26.14
2022-08-14T07:42:57.478Z,26.20
2022-08-14T07:43:55.637Z,26.25
2022-08-14T07:44:35.948Z,26.29
2022-08-14T07:45:20.167Z,26.34
2022-08-14T07:45:55.796Z,26.40
2022-08-14T07:46:30.971Z,26.46
2022-08-14T07:47:05.306Z,26.53
2022-08-14T07:47:43.264Z,26.59
2022-08-14T07:48:17.917Z,26.66
2022-08-14T07:48:59.246Z,26.71
2022-08-14T07:49:35.022Z,26.74
2022-08-14T07:50:18.707Z,26.79
2022-08-14T07:51:02.064Z,26.82
2022-08-14T07:51:40.019Z,26.86
2022-08-14T07:52:13.611Z,26.91
2022-08-14T07:52:56.031Z,26.95
2022-08-14T07:53:29.682Z,26.99
2022-08-14T07:54:10.973Z,27.02
2022-08-14T07:54:45.725Z,27.05
2022-08-14T07:55:21.221Z,27.07
2022-08-14T07:56:00.339Z,27.09
2022-08-14T07:56:47.027Z,27.10
2022-08-14T07:57:25.067Z,27.12
2022-08-14T07:57:58.432Z,27.13
2022-08-14T07:58:38.606Z,27.17
2022-08-14T07:59:12.732Z,27.19
2022-08-14T07:59:47.098Z,27.20
2022-08-14T08:00:31.410Z,27.22
2022-08-14T08:01:07.342Z,27.22
2022-08-14T08:01:47.943Z,27.23
2022-08-14T08:02:28.298Z,27.22
2022-08-14T08:03:11.086Z,27.22
2022-08-14T08:03:49.531Z,27.21
2022-08-14T08:04:29.674Z,27.18
2022-08-14T08:05:09.999Z,27.17
2022-08-14T08:05:46.364Z,27.15
2022-08-14T08:06:19.613Z,27.15
2022-08-14T08:06:55.295Z,27.15
2022-08-14T08:07:31.657Z,27.17
2022-08-14T08:08:08.269Z,27.16
2022-08-14T08:09:03.487Z,27.13
2022-08-14T08:09:41.714Z,27.12
2022-08-14T08:10:57.375Z,27.10
2022-08-14T08:11:35.015Z,27.04
2022-08-14T08:12:14.267Z,27.03
2022-08-14T08:12:50.167Z,27.03
2022-08-14T08:13:24.166Z,27.03
2022-08-14T08:14:00.462Z,27.04
2022-08-14T08:14:56.152Z,27.05
2022-08-14T08:15:33.118Z,27.04
2022-08-14T08:16:08.990Z,27.03
2022-08-14T08:16:43.378Z,27.05
2022-08-14T08:17:21.146Z,27.06
2022-08-14T08:18:01.165Z,27.10
2022-08-14T08:18:36.063Z,27.09
2022-08-14T08:19:14.146Z,27.11
2022-08-14T08:19:49.397Z,27.13
2022-08-14T08:20:29.340Z,27.14
2022-08-14T08:21:02.864Z,27.13
2022-08-14T08:21:40.150Z,27.12
2022-08-14T08:22:17.140Z,27.11
2022-08-14T08:22:55.792Z,27.06
2022-08-14T08:23:40.661Z,27.07
2022-08-14T08:24:24.628Z,27.11
2022-08-14T08:24:57.947Z,27.14
2022-08-14T08:25:34.400Z,27.17
2022-08-14T08:26:13.598Z,27.18
2022-08-14T08:26:50.627Z,27.19
2022-08-14T08:27:24.096Z,27.21
2022-08-14T08:28:08.213Z,27.23
2022-08-14T08:28:43.937Z,27.27
2022-08-14T08:29:28.586Z,27.29
2022-08-14T08:30:11.626Z,27.32
2022-08-14T08:30:56.640Z,27.37
2022-08-14T08:31:33.099Z,27.41
2022-08-14T08:32:09.191Z,27.45
2022-08-14T08:32:44.162Z,27.49
2022-08-14T08:33:19.607Z,27.55